Time;durP1;ratioP1;P1;durP2;ratioP2;P2;SDS_P1;SDS_P2;PMS_P1;PMS_P2;Temp;Humidity;BMP_temperature;BMP_pressure;BME280_temperature;BME280_humidity;BME280_pressure;Samples;Min_cycle;Max_cycle;Signal;HPM_P1;HPM_P2
2022/06/09 00:01:17;;;;;;;13.30;2.75;;;;;;;14.21;100.00;100756.16;5021622;28;20045;-67
2022/06/09 00:03:45;;;;;;;16.92;2.83;;;;;;;14.16;100.00;100756.16;5032707;28;20071;-67
2022/06/09 00:06:12;;;;;;;14.18;2.83;;;;;;;14.21;100.00;100756.16;5030806;28;20500;-68
2022/06/09 00:08:42;;;;;;;18.10;2.67;;;;;;;14.16;100.00;100757.06;5027794;28;20031;-69
2022/06/09 00:11:12;;;;;;;14.90;2.95;;;;;;;14.22;100.00;100765.88;5030410;28;20021;-68
2022/06/09 00:13:38;;;;;;;16.10;2.63;;;;;;;14.19;100.00;100761.47;5022566;28;20029;-69
2022/06/09 00:16:05;;;;;;;13.45;2.47;;;;;;;14.24;100.00;100777.34;5019747;28;20028;-69
2022/06/09 00:18:30;;;;;;;11.07;2.65;;;;;;;14.22;100.00;100771.19;5031723;28;20025;-68
2022/06/09 00:20:56;;;;;;;14.80;2.30;;;;;;;14.26;100.00;100783.53;5032406;28;20447;-69
2022/06/09 00:23:21;;;;;;;12.63;2.22;;;;;;;14.25;100.00;100785.28;5036365;28;20474;-68
2022/06/09 00:25:47;;;;;;;13.25;2.47;;;;;;;14.27;100.00;100782.63;5036234;28;20025;-68
2022/06/09 00:28:13;;;;;;;10.10;2.15;;;;;;;14.31;100.00;100782.63;5030219;28;20026;-67
2022/06/09 00:30:39;;;;;;;11.07;1.85;;;;;;;14.29;100.00;100788.81;5024890;28;20474;-67
2022/06/09 00:33:04;;;;;;;11.35;1.88;;;;;;;14.30;100.00;100778.22;5027771;28;20028;-68
2022/06/09 00:35:30;;;;;;;12.73;2.30;;;;;;;14.31;100.00;100781.75;5029454;28;20037;-67
2022/06/09 00:37:55;;;;;;;18.55;2.90;;;;;;;14.32;100.00;100784.41;5029946;28;20025;-68
2022/06/09 00:40:21;;;;;;;13.80;2.22;;;;;;;14.30;100.00;100790.59;5024109;28;20025;-68
2022/06/09 00:42:47;;;;;;;11.73;2.67;;;;;;;14.29;100.00;100794.09;5034662;28;20079;-67
2022/06/09 00:45:30;;;;;;;20.17;2.78;;;;;;;14.27;100.00;100791.47;5022741;28;20339;-67
2022/06/09 00:48:21;;;;;;;15.65;2.10;;;;;;;14.23;100.00;100795.00;5025350;28;20461;-69
2022/06/09 00:50:53;;;;;;;7.63;2.30;;;;;;;14.24;100.00;100803.81;5028068;28;20123;-68
2022/06/09 00:53:24;;;;;;;15.95;2.47;;;;;;;14.19;100.00;100798.53;5023467;28;20033;-69
2022/06/09 00:55:50;;;;;;;13.73;2.53;;;;;;;14.19;100.00;100803.81;5025934;28;20062;-67
2022/06/09 00:58:19;;;;;;;16.30;2.40;;;;;;;14.19;100.00;100802.91;5019472;28;20033;-67
2022/06/09 01:00:56;;;;;;;12.98;2.10;;;;;;;14.18;100.00;100803.81;5035538;28;20032;-68
2022/06/09 01:03:25;;;;;;;13.05;2.42;;;;;;;14.21;100.00;100802.03;5031389;28;20558;-68
2022/06/09 01:06:01;;;;;;;9.40;1.77;;;;;;;14.22;100.00;100808.22;5020076;28;20033;-68
2022/06/09 01:08:29;;;;;;;17.65;2.85;;;;;;;14.17;100.00;100816.16;5028587;28;20037;-68
2022/06/09 01:10:54;;;;;;;13.18;2.28;;;;;;;14.16;100.00;100809.97;5034226;28;20450;-69
2022/06/09 01:13:21;;;;;;;12.80;2.35;;;;;;;14.16;100.00;100811.72;5032951;28;20045;-69
2022/06/09 01:16:02;;;;;;;12.02;2.65;;;;;;;14.14;100.00;100811.72;5038021;28;20028;-68
2022/06/09 01:18:41;;;;;;;15.93;2.45;;;;;;;14.13;100.00;100820.56;5025553;28;20060;-68
2022/06/09 01:21:14;;;;;;;16.08;2.33;;;;;;;14.11;100.00;100822.31;5027259;28;20439;-68
2022/06/09 01:24:07;;;;;;;17.85;2.15;;;;;;;14.06;100.00;100829.34;5033720;28;20034;-70
2022/06/09 01:26:38;;;;;;;24.10;2.10;;;;;;;14.09;100.00;100829.34;5028014;28;20040;-66
2022/06/09 01:29:40;;;;;;;11.05;2.20;;;;;;;14.06;100.00;100832.00;5031853;28;20592;-68
2022/06/09 01:32:31;;;;;;;12.18;2.58;;;;;;;14.06;100.00;100828.47;5030729;28;20029;-67
2022/06/09 01:35:02;;;;;;;15.32;3.28;;;;;;;14.05;100.00;100832.88;5027387;28;20525;-68
2022/06/09 01:37:36;;;;;;;15.25;2.28;;;;;;;14.03;100.00;100839.06;5030293;28;20123;-68
2022/06/09 01:40:06;;;;;;;13.23;2.72;;;;;;;14.04;100.00;100843.47;5030492;28;20025;-68
2022/06/09 01:42:32;;;;;;;9.70;2.05;;;;;;;14.02;100.00;100843.47;5023173;28;20022;-67
2022/06/09 01:45:12;;;;;;;8.40;2.42;;;;;;;14.02;100.00;100845.22;5029714;28;20393;-68
2022/06/09 01:47:47;;;;;;;8.60;2.30;;;;;;;14.01;100.00;100852.25;5032734;28;20175;-68
2022/06/09 01:50:21;;;;;;;14.73;2.13;;;;;;;14.05;100.00;100850.53;5032167;28;20041;-68
2022/06/09 01:52:48;;;;;;;13.63;2.08;;;;;;;14.07;100.00;100844.34;5027687;28;20022;-67
2022/06/09 01:55:17;;;;;;;10.82;2.05;;;;;;;14.09;100.00;100853.16;5024610;28;20088;-69
2022/06/09 01:57:46;;;;;;;10.85;2.13;;;;;;;14.06;100.00;100842.59;5025054;28;20056;-67
2022/06/09 02:00:15;;;;;;;12.35;2.00;;;;;;;14.07;100.00;100856.72;5031417;28;20033;-68
2022/06/09 02:02:47;;;;;;;7.93;1.60;;;;;;;14.07;100.00;100849.66;5016281;28;20033;-68
2022/06/09 02:05:18;;;;;;;12.82;2.00;;;;;;;14.11;100.00;100847.91;5028849;28;20029;-68
2022/06/09 02:07:46;;;;;;;7.68;1.60;;;;;;;14.10;100.00;100844.34;5030150;28;20025;-68
2022/06/09 02:10:18;;;;;;;12.85;2.38;;;;;;;14.13;100.00;100847.03;5031794;28;20112;-68
2022/06/09 02:12:48;;;;;;;8.73;2.55;;;;;;;14.11;100.00;100848.78;5034805;28;20025;-67
2022/06/09 02:15:20;;;;;;;6.40;1.77;;;;;;;14.13;100.00;100854.97;5024338;28;20030;-68
2022/06/09 02:17:47;;;;;;;12.23;1.83;;;;;;;14.14;100.00;100851.41;5032556;28;20026;-68
2022/06/09 02:20:14;;;;;;;14.10;2.25;;;;;;;14.12;100.00;100855.84;5026446;28;20056;-68
2022/06/09 02:22:40;;;;;;;10.43;2.03;;;;;;;14.14;100.00;100867.28;5028330;28;20029;-68
2022/06/09 02:25:06;;;;;;;9.32;2.03;;;;;;;14.12;100.00;100871.72;5029764;28;20021;-68
2022/06/09 02:27:31;;;;;;;13.75;1.90;;;;;;;14.15;100.00;100874.38;5015776;28;20454;-68
2022/06/09 02:29:57;;;;;;;8.00;1.50;;;;;;;14.17;100.00;100869.06;5034592;28;20026;-68
2022/06/09 02:32:22;;;;;;;13.13;2.55;;;;;;;14.15;100.00;100866.44;5025854;28;20116;-68
2022/06/09 02:34:47;;;;;;;5.75;1.75;;;;;;;14.19;100.00;100879.66;5016005;28;20030;-69
2022/06/09 02:37:13;;;;;;;12.88;2.55;;;;;;;14.25;100.00;100882.31;5019216;28;20029;-69
2022/06/09 02:39:38;;;;;;;7.45;1.50;;;;;;;14.24;100.00;100869.97;5018324;28;20029;-68
2022/06/09 02:42:04;;;;;;;15.27;2.15;;;;;;;14.24;100.00;100885.84;5018905;28;20048;-68
2022/06/09 02:44:29;;;;;;;11.75;1.70;;;;;;;14.21;100.00;100880.56;5034046;28;20112;-68
2022/06/09 02:46:55;;;;;;;10.80;2.05;;;;;;;14.20;100.00;100889.38;5033188;28;20022;-69
2022/06/09 02:49:21;;;;;;;10.25;1.52;;;;;;;14.20;100.00;100899.97;5033854;28;20056;-67
2022/06/09 02:51:47;;;;;;;9.23;1.90;;;;;;;14.22;100.00;100892.91;5021944;28;20021;-68
2022/06/09 02:54:13;;;;;;;10.00;2.08;;;;;;;14.24;100.00;100893.78;5028899;28;20036;-68
2022/06/09 02:56:39;;;;;;;9.85;2.65;;;;;;;14.24;100.00;100901.72;5033150;28;20025;-70
2022/06/09 02:59:05;;;;;;;7.15;1.50;;;;;;;14.28;100.00;100903.50;5018815;28;20029;-68
2022/06/09 03:01:31;;;;;;;10.40;1.83;;;;;;;14.23;100.00;100899.94;5021327;28;20017;-67
2022/06/09 03:03:57;;;;;;;10.43;1.98;;;;;;;14.24;100.00;100899.09;5016888;28;20461;-69
2022/06/09 03:06:22;;;;;;;12.57;2.10;;;;;;;14.27;100.00;100904.38;5014291;28;20557;-68
2022/06/09 03:08:47;;;;;;;6.38;1.60;;;;;;;14.30;100.00;100904.41;5022958;28;20056;-67
2022/06/09 03:11:13;;;;;;;13.13;1.83;;;;;;;14.31;100.00;100911.44;5026920;28;20434;-68
2022/06/09 03:13:40;;;;;;;4.72;1.65;;;;;;;14.30;100.00;100915.88;5023462;28;20029;-68
2022/06/09 03:16:06;;;;;;;9.82;1.48;;;;;;;14.33;100.00;100917.63;5028645;28;20520;-67
2022/06/09 03:18:32;;;;;;;8.15;1.75;;;;;;;14.34;100.00;100922.06;5031550;28;20119;-68
2022/06/09 03:20:57;;;;;;;17.92;2.15;;;;;;;14.31;100.00;100928.22;5031815;28;20045;-68
2022/06/09 03:23:23;;;;;;;5.25;2.13;;;;;;;14.34;100.00;100927.34;5017934;28;20022;-68
2022/06/09 03:25:48;;;;;;;6.10;1.52;;;;;;;14.36;100.00;100928.22;5029793;28;20021;-67
2022/06/09 03:28:13;;;;;;;11.25;1.67;;;;;;;14.34;100.00;100930.00;5029212;28;20087;-67
2022/06/09 03:30:39;;;;;;;7.40;1.55;;;;;;;14.34;100.00;100935.28;5023424;28;20445;-67
2022/06/09 03:33:05;;;;;;;15.45;1.95;;;;;;;14.33;100.00;100938.81;5027266;28;20033;-68
2022/06/09 03:35:31;;;;;;;7.90;2.00;;;;;;;14.34;100.00;100951.19;5020691;28;20053;-68
2022/06/09 03:37:56;;;;;;;8.45;2.00;;;;;;;14.38;100.00;100945.00;5018363;28;20042;-68
2022/06/09 03:40:24;;;;;;;11.55;2.20;;;;;;;14.37;100.00;100945.88;5013952;28;20053;-69
2022/06/09 03:42:50;;;;;;;4.47;1.40;;;;;;;14.40;100.00;100956.47;5029325;28;20022;-68
2022/06/09 03:45:16;;;;;;;11.23;1.70;;;;;;;14.43;100.00;100955.59;5020851;28;20017;-69
2022/06/09 03:47:42;;;;;;;6.88;1.80;;;;;;;14.45;100.00;100967.97;5032183;28;20440;-67
2022/06/09 03:50:13;;;;;;;11.68;1.90;;;;;;;14.44;100.00;100974.13;5014587;28;20046;-68
2022/06/09 03:52:38;;;;;;;6.10;1.73;;;;;;;14.41;100.00;100974.13;5021135;28;20121;-68
2022/06/09 03:55:04;;;;;;;8.63;1.70;;;;;;;14.41;100.00;100971.47;5023706;28;20108;-67
2022/06/09 03:57:30;;;;;;;3.35;1.42;;;;;;;14.45;100.00;100981.19;5032660;28;20064;-67
2022/06/09 03:59:55;;;;;;;7.28;1.75;;;;;;;14.47;100.00;100989.16;5020246;28;20109;-68
2022/06/09 04:02:23;;;;;;;5.15;1.70;;;;;;;14.48;100.00;100989.16;5017095;28;20029;-68
2022/06/09 04:04:49;;;;;;;6.68;1.30;;;;;;;14.50;100.00;100989.13;5029265;28;20389;-69
2022/06/09 04:07:14;;;;;;;8.45;1.45;;;;;;;14.49;100.00;100993.56;5024691;28;20406;-69
2022/06/09 04:09:40;;;;;;;3.88;1.30;;;;;;;14.51;100.00;100998.84;5019799;28;20025;-69
2022/06/09 04:12:05;;;;;;;7.70;1.73;;;;;;;14.57;100.00;100996.25;5025363;28;20037;-68
2022/06/09 04:14:31;;;;;;;9.35;1.63;;;;;;;14.59;100.00;100998.91;5013646;28;20026;-68
2022/06/09 04:16:56;;;;;;;7.53;1.42;;;;;;;14.60;100.00;101000.66;5029395;28;20069;-68
2022/06/09 04:19:22;;;;;;;8.23;1.40;;;;;;;14.66;100.00;101008.66;5020522;28;20362;-69
2022/06/09 04:21:48;;;;;;;6.93;1.30;;;;;;;14.70;100.00;101013.06;5028906;28;20384;-69
2022/06/09 04:24:13;;;;;;;9.75;1.45;;;;;;;14.69;100.00;101015.72;5029241;28;20392;-68
2022/06/09 04:26:41;;;;;;;9.35;1.50;;;;;;;14.72;100.00;101013.97;5033063;28;20026;-68
2022/06/09 04:29:07;;;;;;;8.98;1.45;;;;;;;14.77;100.00;101027.22;5031291;28;20115;-69
2022/06/09 04:31:34;;;;;;;14.73;1.80;;;;;;;14.86;100.00;101029.00;5029852;28;20469;-68
2022/06/09 04:33:59;;;;;;;6.80;1.48;;;;;;;14.95;100.00;101024.59;5028544;28;20032;-68
2022/06/09 04:36:24;;;;;;;9.52;1.88;;;;;;;14.94;100.00;101027.25;5025014;28;20381;-69
2022/06/09 04:38:50;;;;;;;12.07;1.70;;;;;;;14.93;100.00;101026.34;5025460;28;20515;-68
2022/06/09 04:41:16;;;;;;;7.43;1.42;;;;;;;14.95;100.00;101032.56;5024421;28;20476;-68
2022/06/09 04:43:44;;;;;;;7.18;1.42;;;;;;;14.91;100.00;101038.72;5014418;28;20030;-67
2022/06/09 04:46:13;;;;;;;7.63;1.60;;;;;;;14.90;100.00;101041.38;5018001;28;20049;-68
2022/06/09 04:48:38;;;;;;;3.40;1.52;;;;;;;14.92;100.00;101044.91;5024293;28;20026;-68
2022/06/09 04:51:09;;;;;;;15.32;2.30;;;;;;;14.92;100.00;101044.91;5028640;28;20049;-67
2022/06/09 04:53:35;;;;;;;4.78;1.98;;;;;;;14.98;100.00;101050.22;5032422;28;20061;-67
2022/06/09 04:56:00;;;;;;;9.48;1.98;;;;;;;15.01;100.00;101056.41;5013688;28;20076;-68
2022/06/09 04:58:26;;;;;;;6.03;1.42;;;;;;;15.03;100.00;101052.88;5019131;28;20076;-68
2022/06/09 05:00:52;;;;;;;7.18;1.58;;;;;;;15.05;100.00;101072.31;5017997;28;20032;-68
2022/06/09 05:03:17;;;;;;;8.77;1.50;;;;;;;15.08;100.00;101081.16;5029145;28;20018;-68
2022/06/09 05:05:45;;;;;;;7.53;1.65;;;;;;;15.12;100.00;101080.25;5028463;28;20100;-68
2022/06/09 05:08:12;;;;;;;13.75;1.75;;;;;;;15.14;100.00;101089.13;5019712;28;20091;-68
2022/06/09 05:10:39;;;;;;;4.40;1.65;;;;;;;15.15;100.00;101093.53;5046519;28;20025;-68
2022/06/09 05:13:06;;;;;;;7.22;1.42;;;;;;;15.09;100.00;101101.47;5035038;28;20080;-67
2022/06/09 05:15:35;;;;;;;8.07;2.00;;;;;;;15.00;100.00;101112.03;5024698;28;20025;-68
2022/06/09 05:18:01;;;;;;;12.25;1.63;;;;;;;14.94;100.00;101112.06;5027647;28;20125;-68
2022/06/09 05:20:27;;;;;;;6.70;1.50;;;;;;;14.79;100.00;101124.34;5022332;28;20520;-68
2022/06/09 05:22:52;;;;;;;7.18;1.55;;;;;;;14.76;100.00;101124.34;5033756;28;20414;-68
2022/06/09 05:25:18;;;;;;;8.95;1.80;;;;;;;14.60;100.00;101130.44;5033751;28;20074;-68
2022/06/09 05:27:44;;;;;;;6.35;2.00;;;;;;;14.39;100.00;101134.75;5029194;28;20079;-68
2022/06/09 05:30:18;;;;;;;6.80;1.90;;;;;;;14.35;100.00;101138.22;5019551;28;20092;-68
2022/06/09 05:32:43;;;;;;;10.95;2.15;;;;;;;14.23;100.00;101151.41;5027992;28;20025;-68
2022/06/09 05:35:12;;;;;;;6.35;1.92;;;;;;;14.05;100.00;101154.81;5026613;28;20033;-68
2022/06/09 05:45:53;;;;;;;13.48;3.22;;;;;;;13.71;100.00;101165.13;5026300;28;19936;-68
2022/06/09 05:48:19;;;;;;;14.05;3.42;;;;;;;13.60;100.00;101171.19;5027843;28;20025;-68
2022/06/09 05:50:45;;;;;;;10.75;3.53;;;;;;;13.58;100.00;101169.41;5031706;28;20052;-69
2022/06/09 05:53:10;;;;;;;11.88;4.00;;;;;;;13.55;100.00;101175.56;5034412;28;20053;-68
2022/06/09 05:55:35;;;;;;;11.65;4.40;;;;;;;13.53;100.00;101176.44;5032298;28;20466;-69
2022/06/09 05:58:01;;;;;;;13.32;4.32;;;;;;;13.53;100.00;101174.66;5033999;28;20021;-68
2022/06/09 06:00:26;;;;;;;11.65;4.20;;;;;;;13.52;100.00;101186.09;5028388;28;20364;-69
2022/06/09 06:02:51;;;;;;;15.02;4.00;;;;;;;13.54;100.00;101186.09;5026037;28;20366;-69
2022/06/09 06:08:00;;;;;;;;;;;;;;;13.53;100.00;101195.81;5027212;28;20435;-68
2022/06/09 06:10:26;;;;;;;10.87;4.00;;;;;;;13.55;100.00;101202.00;5021518;28;19913;-70
2022/06/09 06:12:52;;;;;;;6.35;3.60;;;;;;;13.59;100.00;101208.19;5025768;28;20287;-71
2022/06/09 06:15:17;;;;;;;12.35;3.38;;;;;;;13.55;100.00;101207.31;5028369;28;20026;-67
2022/06/09 06:17:42;;;;;;;10.75;3.95;;;;;;;13.58;100.00;101212.63;5020515;28;20029;-69
2022/06/09 06:20:09;;;;;;;9.10;3.75;;;;;;;13.60;100.00;101209.97;5023894;28;20049;-68
2022/06/09 06:22:36;;;;;;;14.00;3.92;;;;;;;13.63;100.00;101216.19;5025373;28;20044;-68
2022/06/09 06:25:04;;;;;;;10.60;4.13;;;;;;;13.67;100.00;101219.72;5027872;28;20034;-67
2022/06/09 06:27:30;;;;;;;9.30;3.70;;;;;;;13.66;100.00;101221.50;5022949;28;20033;-69
2022/06/09 06:29:55;;;;;;;6.20;3.90;;;;;;;13.64;100.00;101223.22;5031151;28;20040;-68
2022/06/09 06:32:20;;;;;;;10.70;4.05;;;;;;;13.70;100.00;101225.06;5026180;28;20036;-68
2022/06/09 06:34:46;;;;;;;11.15;3.67;;;;;;;13.68;100.00;101225.94;5032830;28;20120;-68
2022/06/09 06:37:11;;;;;;;7.60;3.00;;;;;;;13.70;100.00;101233.00;5034738;28;20036;-69
2022/06/09 06:39:36;;;;;;;12.27;3.80;;;;;;;13.75;100.00;101236.56;5015203;28;20026;-69
2022/06/09 06:42:02;;;;;;;6.85;2.95;;;;;;;13.78;100.00;101244.56;5017737;28;20018;-69
2022/06/09 06:44:27;;;;;;;16.55;3.80;;;;;;;13.78;100.00;101241.91;5026924;28;20060;-67
2022/06/09 06:46:52;;;;;;;11.73;3.60;;;;;;;13.78;100.00;101241.91;5022667;28;20022;-68
2022/06/09 06:49:18;;;;;;;11.30;3.33;;;;;;;13.80;100.00;101249.84;5025739;28;20030;-69
2022/06/09 06:51:43;;;;;;;11.77;3.33;;;;;;;13.83;100.00;101250.75;5031803;28;20033;-68
2022/06/09 06:54:11;;;;;;;11.38;3.05;;;;;;;13.82;100.00;101249.00;5032538;28;20021;-69
2022/06/09 06:56:37;;;;;;;14.70;3.90;;;;;;;13.85;100.00;101252.53;5033224;28;20021;-68
2022/06/09 06:59:02;;;;;;;13.90;4.50;;;;;;;13.88;100.00;101253.44;5032167;28;20053;-69
2022/06/09 07:01:29;;;;;;;13.93;4.40;;;;;;;13.94;100.00;101257.91;5032273;28;20487;-68
2022/06/09 07:03:55;;;;;;;13.40;4.60;;;;;;;14.05;100.00;101265.94;5034138;28;20519;-67
2022/06/09 07:06:21;;;;;;;11.35;4.13;;;;;;;14.10;100.00;101270.41;5036062;28;20401;-68
2022/06/09 07:08:46;;;;;;;8.88;4.20;;;;;;;14.23;100.00;101275.78;5036403;28;20043;-68
2022/06/09 07:11:12;;;;;;;9.80;3.45;;;;;;;14.34;100.00;101267.06;5052785;28;20488;-69
2022/06/09 07:13:38;;;;;;;8.32;3.47;;;;;;;14.47;100.00;101273.38;5044341;28;20033;-68
2022/06/09 07:16:05;;;;;;;15.43;3.58;;;;;;;14.60;100.00;101281.41;5032722;28;20028;-69
2022/06/09 07:18:32;;;;;;;9.55;3.08;;;;;;;14.63;100.00;101270.84;5032388;28;20108;-66
2022/06/09 07:20:59;;;;;;;8.70;2.97;;;;;;;14.75;100.00;101281.53;5025031;28;20096;-68
2022/06/09 07:23:26;;;;;;;6.88;2.42;;;;;;;14.90;100.00;101279.84;5012970;28;20101;-69
2022/06/09 07:25:52;;;;;;;10.38;2.42;;;;;;;14.98;100.00;101286.94;5013240;28;20025;-69
2022/06/09 07:28:17;;;;;;;11.32;2.85;;;;;;;15.13;100.00;101294.09;5012956;28;20079;-68
2022/06/09 07:30:43;;;;;;;8.05;1.80;;;;;;;15.29;100.00;101296.84;5020400;28;20021;-69
2022/06/09 07:33:09;;;;;;;9.48;1.70;;;;;;;15.46;100.00;101303.09;5033469;28;20021;-68
2022/06/09 07:35:37;;;;;;;8.57;2.08;;;;;;;15.64;100.00;101307.56;5027280;28;20511;-69
2022/06/09 07:38:05;;;;;;;12.48;2.13;;;;;;;15.84;100.00;101310.31;5021081;28;20030;-67
2022/06/09 07:40:34;;;;;;;6.07;1.38;;;;;;;15.92;100.00;101312.09;5012944;28;20067;-68
2022/06/09 07:42:59;;;;;;;5.05;1.50;;;;;;;15.95;100.00;101317.41;5023105;28;20029;-70
2022/06/09 07:45:25;;;;;;;11.10;1.83;;;;;;;16.02;100.00;101322.72;5018242;28;20026;-68
2022/06/09 07:47:50;;;;;;;7.22;1.58;;;;;;;16.09;100.00;101330.69;5022659;28;20477;-68
2022/06/09 07:50:16;;;;;;;5.88;1.55;;;;;;;16.14;100.00;101324.53;5019476;28;20088;-68
2022/06/09 07:52:43;;;;;;;6.18;1.08;;;;;;;16.19;100.00;101329.81;5020534;28;20485;-70
2022/06/09 07:55:09;;;;;;;8.57;1.42;;;;;;;16.16;100.00;101338.66;5031198;28;20022;-69
2022/06/09 07:57:35;;;;;;;9.25;1.92;;;;;;;16.06;100.00;101336.91;5033005;28;20021;-69
2022/06/09 08:00:03;;;;;;;8.73;1.58;;;;;;;16.15;100.00;101336.88;5028317;28;21700;-69
2022/06/09 08:02:29;;;;;;;12.88;1.77;;;;;;;16.22;100.00;101337.78;5031575;28;20489;-68
2022/06/09 08:04:54;;;;;;;7.25;1.75;;;;;;;16.23;100.00;101349.31;5032843;28;20056;-68
2022/06/09 08:07:19;;;;;;;10.98;2.00;;;;;;;16.23;100.00;101357.28;5031625;28;20033;-69
2022/06/09 08:09:45;;;;;;;10.80;1.58;;;;;;;16.25;100.00;101358.16;5045003;28;20029;-69
2022/06/09 08:12:10;;;;;;;6.43;1.52;;;;;;;16.28;100.00;101363.50;5040479;28;20191;-68
2022/06/09 08:14:36;;;;;;;9.13;1.85;;;;;;;16.39;100.00;101366.16;5041008;28;20591;-69
2022/06/09 08:17:02;;;;;;;9.20;1.67;;;;;;;16.50;100.00;101370.56;5033356;28;20029;-70
2022/06/09 08:19:27;;;;;;;8.35;2.10;;;;;;;16.52;100.00;101378.53;5030360;28;20079;-69
2022/06/09 08:21:52;;;;;;;13.65;1.73;;;;;;;16.47;100.00;101377.66;5031770;28;20052;-70
2022/06/09 08:24:18;;;;;;;4.13;1.60;;;;;;;16.54;100.00;101379.44;5030492;28;20083;-70
2022/06/09 08:26:43;;;;;;;6.95;1.38;;;;;;;16.49;100.00;101389.16;5022053;28;20029;-70
2022/06/09 08:29:09;;;;;;;6.82;1.60;;;;;;;16.59;100.00;101390.06;5020657;28;20113;-70
2022/06/09 08:31:34;;;;;;;7.25;2.25;;;;;;;16.56;100.00;101387.41;5032366;28;20396;-71
2022/06/09 08:34:00;;;;;;;12.07;1.98;;;;;;;16.49;100.00;101398.03;5029598;28;20034;-69
2022/06/09 08:36:25;;;;;;;9.70;1.92;;;;;;;16.56;100.00;101395.38;5032845;28;20068;-70
2022/06/09 08:38:51;;;;;;;5.18;1.23;;;;;;;16.68;100.00;101400.69;5022968;28;20529;-68
2022/06/09 08:41:29;;;;;;;10.70;1.45;;;;;;;16.60;100.00;101406.00;5028266;28;20500;-68
2022/06/09 08:44:01;;;;;;;5.32;1.30;;;;;;;16.53;100.00;101404.22;5020487;28;20032;-68
2022/06/09 08:46:54;;;;;;;9.63;1.52;;;;;;;16.64;100.00;101404.22;5035373;28;20044;-68
2022/06/09 08:49:49;;;;;;;5.97;1.48;;;;;;;16.69;100.00;101407.78;5033574;28;20040;-68
2022/06/09 08:53:13;;;;;;;7.78;1.67;;;;;;;16.78;100.00;101405.13;5034322;28;20304;-68
2022/06/09 08:56:26;;;;;;;10.23;1.92;;;;;;;16.98;100.00;101412.22;4994791;28;20046;-69
2022/06/09 08:58:51;;;;;;;9.85;2.15;;;;;;;17.12;100.00;101412.19;4936437;29;20028;-69
2022/06/09 09:01:19;;;;;;;11.75;2.08;;;;;;;17.22;100.00;101408.66;5010346;28;20049;-68
2022/06/09 09:03:49;;;;;;;7.18;1.70;;;;;;;17.24;100.00;101412.22;5016506;28;20548;-68
2022/06/09 09:06:41;;;;;;;7.85;1.70;;;;;;;17.39;100.00;101405.06;5028991;28;20021;-68
2022/06/09 09:09:15;;;;;;;5.18;1.27;;;;;;;17.40;100.00;101418.34;5040139;28;20469;-68
2022/06/09 09:11:45;;;;;;;9.48;1.52;;;;;;;17.35;100.00;101417.50;5028598;28;20033;-69
2022/06/09 09:14:20;;;;;;;8.30;1.90;;;;;;;17.25;100.00;101431.69;5034113;28;20063;-69
2022/06/09 09:16:48;;;;;;;5.65;1.73;;;;;;;17.28;100.00;101427.28;5040957;28;20473;-69
2022/06/09 09:19:31;;;;;;;9.50;1.70;;;;;;;17.46;100.00;101429.00;5035089;28;20037;-69
2022/06/09 09:22:17;;;;;;;6.38;1.70;;;;;;;17.51;100.00;101426.31;5028623;28;20096;-69
2022/06/09 09:25:27;;;;;;;8.77;1.85;;;;;;;17.59;100.00;101435.16;5028846;28;20018;-68
2022/06/09 09:28:04;;;;;;;7.45;2.00;;;;;;;17.75;100.00;101441.31;5000633;28;20034;-67
2022/06/09 09:31:02;;;;;;;12.43;1.95;;;;;;;17.79;100.00;101439.53;5031892;28;20045;-68
2022/06/09 09:33:29;;;;;;;6.43;1.67;;;;;;;17.85;100.00;101453.72;5027676;28;20090;-68
2022/06/09 09:35:59;;;;;;;9.32;1.73;;;;;;;17.89;100.00;101456.38;5035598;28;20036;-68
2022/06/09 09:38:41;;;;;;;8.48;1.75;;;;;;;17.89;100.00;101459.03;5035592;28;20029;-69
2022/06/09 09:41:06;;;;;;;5.85;2.15;;;;;;;17.85;100.00;101453.72;5029409;28;20136;-69
2022/06/09 09:43:39;;;;;;;4.95;1.40;;;;;;;17.79;100.00;101456.38;5032984;28;20068;-67
2022/06/09 09:46:21;;;;;;;9.35;1.30;;;;;;;17.81;100.00;101462.59;5035669;28;20033;-68
2022/06/09 09:48:48;;;;;;;5.20;1.27;;;;;;;17.97;100.00;101462.56;5041953;28;20033;-68
2022/06/09 09:51:13;;;;;;;9.48;2.05;;;;;;;18.07;100.00;101466.97;5044574;28;20041;-69
2022/06/09 09:53:45;;;;;;;6.32;1.65;;;;;;;18.07;100.00;101472.31;5034424;28;20078;-68
2022/06/09 09:56:17;;;;;;;9.00;1.53;;;;;;;17.84;100.00;101485.69;5028625;28;20032;-69
2022/06/09 09:58:48;;;;;;;8.45;1.70;;;;;;;17.92;100.00;101485.66;5020073;28;20040;-69
2022/06/09 10:01:25;;;;;;;5.70;1.60;;;;;;;17.97;100.00;101483.88;5033118;28;20021;-69
2022/06/09 10:09:35;;;;;;;9.52;1.55;;;;;;;18.24;100.00;101503.31;5034070;28;20048;-69
2022/06/09 10:12:16;;;;;;;13.18;2.20;;;;;;;18.10;100.00;101506.91;5033899;28;20037;-70
2022/06/09 10:14:53;;;;;;;10.80;1.73;;;;;;;18.32;100.00;101507.69;5031424;28;20029;-68
2022/06/09 10:17:20;;;;;;;9.35;1.85;;;;;;;18.60;100.00;101506.63;5032041;28;20030;-69
2022/06/09 10:20:14;;;;;;;7.85;1.80;;;;;;;18.80;100.00;101507.44;5034957;28;20469;-71
2022/06/09 10:22:42;;;;;;;9.82;1.65;;;;;;;18.90;100.00;101510.06;5034959;28;20095;-70
2022/06/09 10:25:27;;;;;;;6.63;1.70;;;;;;;18.89;100.00;101524.28;5034894;28;20022;-70
2022/06/09 10:28:00;;;;;;;6.60;1.85;;;;;;;18.96;100.00;101520.66;5034851;28;20022;-70
2022/06/09 10:30:47;;;;;;;9.00;1.60;;;;;;;18.93;100.00;101526.91;5034177;28;20461;-69
2022/06/09 10:33:39;;;;;;;6.65;1.63;;;;;;;18.95;100.00;101529.56;5025853;28;20129;-68
2022/06/09 10:36:20;;;;;;;12.80;1.77;;;;;;;19.02;100.00;101531.31;5016609;28;20060;-68
2022/06/09 10:38:50;;;;;;;8.13;2.40;;;;;;;18.90;100.00;101520.72;5029842;28;20100;-69
2022/06/09 10:41:40;;;;;;;7.28;1.70;;;;;;;19.02;100.00;101531.31;5027897;28;20461;-69
2022/06/09 10:44:19;;;;;;;7.32;2.22;;;;;;;19.13;100.00;101534.75;5046184;28;20029;-69
2022/06/09 10:56:15;;;;;;;15.52;2.17;;;;;;;19.64;100.00;101547.66;5032779;28;20682;-70
2022/06/09 10:59:00;;;;;;;9.65;1.95;;;;;;;19.84;100.00;101544.78;5018671;28;20123;-68
2022/06/09 11:01:30;;;;;;;8.07;2.03;;;;;;;19.67;100.00;101546.75;5015231;28;20028;-69
2022/06/09 11:03:56;;;;;;;12.05;2.58;;;;;;;19.61;100.00;101546.81;5017346;28;20025;-69
2022/06/09 11:06:40;;;;;;;10.55;2.38;;;;;;;19.79;100.00;101541.28;5021892;28;20034;-69
2022/06/09 11:09:18;;;;;;;12.48;2.30;;;;;;;19.70;100.00;101557.41;5028397;28;20033;-70
2022/06/09 11:12:01;;;;;;;7.45;1.98;;;;;;;19.63;98.19;101561.00;5039593;28;20033;-68
2022/06/09 11:14:37;;;;;;;6.22;1.92;;;;;;;19.67;100.00;101560.97;5042243;28;20044;-69
2022/06/09 11:17:21;;;;;;;11.02;2.30;;;;;;;19.42;100.00;101562.97;5033335;28;20025;-69
2022/06/09 11:19:52;;;;;;;;;;;;;;;19.47;98.14;101566.50;5033083;28;20029;-67
2022/06/09 11:22:29;;;;;;;10.43;2.15;;;;;;;19.47;96.73;101560.28;5033673;28;19936;-69
2022/06/09 11:25:03;;;;;;;7.53;1.80;;;;;;;19.58;100.00;101552.19;5026436;28;20037;-70
2022/06/09 11:27:58;;;;;;;10.80;2.20;;;;;;;19.88;100.00;101553.69;5022170;28;20382;-69
2022/06/09 11:30:34;;;;;;;8.38;1.88;;;;;;;19.95;95.50;101565.19;5029117;28;20032;-70
2022/06/09 11:33:14;;;;;;;10.95;2.00;;;;;;;20.14;96.44;101561.38;5020532;28;20063;-70
2022/06/09 11:35:57;;;;;;;15.52;2.15;;;;;;;20.35;97.22;101559.38;5031046;28;20548;-69
2022/06/09 11:38:23;;;;;;;;;;;;;;;20.43;95.27;101559.25;5032707;28;20029;-69
2022/06/09 11:40:58;;;;;;;15.00;2.43;;;;;;;20.65;93.24;101565.22;5033638;28;20280;-70
2022/06/09 11:43:53;;;;;;;12.93;2.30;;;;;;;20.87;94.63;101561.34;5028076;28;20045;-70
2022/06/09 11:46:30;;;;;;;17.13;2.55;;;;;;;20.85;93.38;101576.53;5030113;28;20053;-69
2022/06/09 11:49:01;;;;;;;13.38;2.20;;;;;;;21.11;94.54;101580.63;5031427;28;20037;-70
2022/06/09 11:51:29;;;;;;;14.23;2.50;;;;;;;20.95;92.12;101573.75;5031211;28;20045;-69
2022/06/09 11:54:02;;;;;;;10.57;2.83;;;;;;;21.01;90.04;101571.84;5031047;28;20048;-69